Time;durP1;ratioP1;P1;durP2;ratioP2;P2;SDS_P1;SDS_P2;PMS_P1;PMS_P2;Temp;Humidity;BMP_temperature;BMP_pressure;BME280_temperature;BME280_humidity;BME280_pressure;Samples;Min_cycle;Max_cycle;Signal;HPM_P1;HPM_P2
2021/03/22 03:45:36;;;;;;;20.92;13.52;;;3.70;99.90;;;;;;5944186;23;20094;-88
2021/03/22 03:48:02;;;;;;;19.50;13.68;;;;;;;;;;5025860;28;20457;-87
2021/03/22 03:50:30;;;;;;;22.75;14.63;;;3.60;99.90;;;;;;5025033;28;20049;-88
2021/03/22 03:52:56;;;;;;;20.73;14.75;;;3.60;99.90;;;;;;5006472;28;20034;-86
2021/03/22 03:55:24;;;;;;;24.15;14.23;;;3.60;99.90;;;;;;5025060;28;20039;-87
2021/03/22 03:57:51;;;;;;;23.02;14.85;;;3.60;99.90;;;;;;5006236;28;20941;-87
2021/03/22 04:00:29;;;;;;;22.27;14.30;;;3.70;99.90;;;;;;5024302;28;20411;-87
2021/03/22 04:02:56;;;;;;;19.98;13.25;;;3.70;99.90;;;;;;5024746;28;20510;-88
2021/03/22 04:05:23;;;;;;;20.48;14.32;;;3.80;99.90;;;;;;5024587;28;20045;-88
2021/03/22 04:07:49;;;;;;;20.38;14.57;;;3.80;99.90;;;;;;5024330;28;20100;-88
2021/03/22 04:10:15;;;;;;;22.65;14.93;;;3.70;99.90;;;;;;5006554;28;20121;-88
2021/03/22 04:12:42;;;;;;;21.15;14.15;;;3.70;99.90;;;;;;5005896;28;20045;-88
2021/03/22 04:15:12;;;;;;;22.77;14.50;;;3.80;99.90;;;;;;5024546;28;20118;-88
2021/03/22 04:17:37;;;;;;;24.35;15.40;;;3.80;99.90;;;;;;5025145;28;20734;-88
2021/03/22 04:20:05;;;;;;;19.85;13.10;;;3.90;99.90;;;;;;5022541;28;20052;-88
2021/03/22 04:22:30;;;;;;;22.73;14.95;;;4.00;99.90;;;;;;5024801;28;20041;-88
2021/03/22 04:24:56;;;;;;;23.27;14.40;;;4.00;99.90;;;;;;5021204;28;20529;-88
2021/03/22 04:27:22;;;;;;;20.17;14.18;;;4.00;99.90;;;;;;5025210;28;20054;-88
2021/03/22 04:29:47;;;;;;;27.13;15.93;;;4.10;99.90;;;;;;5027903;28;20042;-86
2021/03/22 04:32:13;;;;;;;24.25;15.05;;;4.10;99.90;;;;;;5025964;28;20046;-88
2021/03/22 04:34:39;;;;;;;23.83;14.88;;;4.10;99.90;;;;;;5011246;28;20113;-88
2021/03/22 04:37:05;;;;;;;22.05;15.02;;;4.10;99.90;;;;;;5020351;28;20085;-89
2021/03/22 04:39:33;;;;;;;22.13;15.02;;;4.10;99.90;;;;;;5032013;28;20042;-88
2021/03/22 04:42:00;;;;;;;26.13;16.13;;;4.10;99.90;;;;;;5044791;28;20023;-89
2021/03/22 04:44:27;;;;;;;23.45;15.32;;;;;;;;;;5048000;28;20035;-91
2021/03/22 04:46:53;;;;;;;25.83;15.50;;;;;;;;;;5047235;28;20114;-90
2021/03/22 04:49:19;;;;;;;22.95;14.07;;;;;;;;;;5046981;28;20052;-91
2021/03/22 04:51:45;;;;;;;22.20;15.07;;;;;;;;;;5035344;28;20049;-90
2021/03/22 04:54:11;;;;;;;23.05;14.90;;;;;;;;;;5025810;28;20046;-90
2021/03/22 04:56:38;;;;;;;25.63;16.00;;;;;;;;;;5007333;28;20602;-89
2021/03/22 04:59:04;;;;;;;23.35;15.35;;;;;;;;;;5022934;28;20038;-89
2021/03/22 05:01:30;;;;;;;23.40;15.20;;;;;;;;;;5027260;28;20042;-91
2021/03/22 05:03:56;;;;;;;22.65;14.60;;;;;;;;;;5000777;28;20089;-89
2021/03/22 05:06:22;;;;;;;22.45;14.27;;;;;;;;;;5025447;28;20039;-90
2021/03/22 05:08:49;;;;;;;22.48;13.88;;;;;;;;;;5003886;28;20186;-87
2021/03/22 05:11:18;;;;;;;25.67;15.27;;;;;;;;;;5017014;28;20047;-87
2021/03/22 05:13:45;;;;;;;23.88;15.55;;;4.30;99.90;;;;;;5021829;28;20046;-87
2021/03/22 05:16:13;;;;;;;23.45;14.05;;;4.30;99.90;;;;;;5025436;28;20046;-87
2021/03/22 05:18:40;;;;;;;21.95;14.25;;;4.40;99.90;;;;;;5012136;28;20070;-89
2021/03/22 05:21:08;;;;;;;21.58;14.25;;;4.40;99.90;;;;;;5024410;28;20505;-89
2021/03/22 05:23:37;;;;;;;19.58;13.93;;;4.40;99.90;;;;;;5025342;28;20074;-88
2021/03/22 05:26:04;;;;;;;23.75;15.55;;;4.40;99.90;;;;;;5024311;28;20034;-88
2021/03/22 05:28:32;;;;;;;21.88;14.07;;;4.40;99.90;;;;;;5016306;28;20051;-88
2021/03/22 05:30:59;;;;;;;19.20;13.88;;;4.40;99.90;;;;;;5007002;28;20121;-89
2021/03/22 05:33:25;;;;;;;22.27;15.43;;;;;;;;;;5006986;28;20093;-88
2021/03/22 05:35:54;;;;;;;23.48;15.18;;;4.40;99.90;;;;;;5007454;28;20046;-88
2021/03/22 05:38:21;;;;;;;23.02;16.42;;;4.40;99.90;;;;;;5030280;28;20034;-87
2021/03/22 05:40:56;;;;;;;21.75;13.65;;;4.30;99.90;;;;;;5039330;28;20031;-87
2021/03/22 05:43:42;;;;;;;25.13;15.57;;;4.40;99.90;;;;;;5036443;28;20115;-87
2021/03/22 05:46:24;;;;;;;19.30;13.70;;;4.40;99.90;;;;;;5032060;28;20051;-87
2021/03/22 05:49:12;;;;;;;;;;;4.40;99.90;;;;;;5023456;28;20053;-86
2021/03/22 05:52:07;;;;;;;22.95;14.45;;;4.40;99.90;;;;;;5017473;28;20500;-91
2021/03/22 05:55:10;;;;;;;21.38;14.10;;;4.40;99.90;;;;;;5006829;28;20514;-90
2021/03/22 05:58:03;;;;;;;24.20;15.57;;;4.50;99.90;;;;;;5013600;28;20896;-88
2021/03/22 06:00:44;;;;;;;21.70;14.65;;;4.50;99.90;;;;;;5037303;28;20062;-89
2021/03/22 06:03:22;;;;;;;25.73;16.05;;;4.50;99.90;;;;;;5036684;28;20023;-89
2021/03/22 06:06:08;;;;;;;22.23;15.23;;;4.60;99.90;;;;;;5045493;28;20050;-87
2021/03/22 06:09:01;;;;;;;23.85;15.15;;;4.60;99.90;;;;;;5043465;28;20025;-88
2021/03/22 06:11:27;;;;;;;25.73;16.88;;;;;;;;;;5034889;28;20051;-88
2021/03/22 06:14:11;;;;;;;27.23;18.85;;;4.60;99.90;;;;;;5029372;28;20090;-86
2021/03/22 06:16:46;;;;;;;25.30;17.77;;;4.70;99.90;;;;;;5021766;28;20027;-85
2021/03/22 06:19:14;;;;;;;28.48;17.92;;;4.70;99.90;;;;;;5028357;28;20119;-88
2021/03/22 06:21:46;;;;;;;28.65;18.17;;;4.70;99.90;;;;;;5017390;28;20047;-87
2021/03/22 06:24:23;;;;;;;27.00;16.20;;;4.80;99.90;;;;;;4987151;28;20494;-89
2021/03/22 06:26:57;;;;;;;23.52;16.75;;;4.80;99.90;;;;;;4985285;28;21283;-89
2021/03/22 06:29:36;;;;;;;24.92;16.20;;;4.90;99.90;;;;;;5020248;28;20031;-88
2021/03/22 06:32:39;;;;;;;25.45;16.17;;;4.90;99.90;;;;;;5023220;28;20129;-92
2021/03/22 06:35:14;;;;;;;23.95;15.82;;;5.00;99.90;;;;;;5038554;28;20041;-92
2021/03/22 06:37:40;;;;;;;21.25;14.90;;;;;;;;;;5026641;28;20042;-89
2021/03/22 06:40:14;;;;;;;20.70;14.48;;;5.10;99.90;;;;;;5045920;28;20042;-87
2021/03/22 06:43:03;;;;;;;22.20;14.50;;;5.20;99.90;;;;;;5032244;28;20046;-87
2021/03/22 06:45:51;;;;;;;21.55;13.95;;;5.40;99.90;;;;;;5027558;28;21861;-88
2021/03/22 06:48:17;;;;;;;20.33;12.85;;;;;;;;;;5035489;28;20031;-93
2021/03/22 06:50:43;;;;;;;19.45;12.75;;;5.40;99.90;;;;;;5033151;28;20057;-90
2021/03/22 06:54:00;;;;;;;;;;;5.50;99.90;;;;;;2428753;28;41264861;-89
2021/03/22 07:00:30;;;;;;;;;;;5.70;99.90;;;;;;5;31593569;41265420;-91
2021/03/22 07:06:21;;;;;;;19.20;11.85;;;5.80;99.90;;;;;;4934766;28;87329;-90
2021/03/22 07:08:50;;;;;;;20.83;12.70;;;5.80;99.90;;;;;;4945517;28;87197;-90
2021/03/22 07:11:25;;;;;;;18.65;12.10;;;6.00;99.90;;;;;;4923743;28;89253;-89
2021/03/22 07:14:00;;;;;;;25.88;13.52;;;6.00;99.90;;;;;;4940112;28;87141;-90
2021/03/22 07:16:29;;;;;;;18.73;11.70;;;6.10;99.90;;;;;;4946243;28;86751;-91
2021/03/22 07:19:15;;;;;;;21.00;11.73;;;6.10;99.90;;;;;;4939577;28;87113;-90
2021/03/22 07:22:04;;;;;;;20.42;11.77;;;6.30;99.90;;;;;;4923791;28;88300;-90
2021/03/22 07:24:59;;;;;;;21.90;12.13;;;6.60;99.90;;;;;;4946744;28;87064;-90
2021/03/22 07:27:48;;;;;;;18.17;10.55;;;6.60;99.90;;;;;;4941158;28;86891;-90
2021/03/22 07:30:29;;;;;;;23.90;12.27;;;6.80;99.90;;;;;;4928949;28;86625;-90
2021/03/22 07:33:13;;;;;;;16.98;11.93;;;6.90;99.90;;;;;;4943491;28;91202;-91
2021/03/22 07:35:45;;;;;;;16.70;11.93;;;6.90;99.90;;;;;;4946316;28;88331;-90
2021/03/22 07:38:35;;;;;;;24.52;11.90;;;7.00;99.90;;;;;;4928276;28;86952;-89
2021/03/22 07:41:18;;;;;;;;;;;7.00;99.90;;;;;;4945678;28;87492;-91
2021/03/22 07:44:15;;;;;;;24.73;11.88;;;7.00;99.90;;;;;;4930332;28;91556;-91
2021/03/22 07:47:04;;;;;;;19.88;10.57;;;7.20;99.90;;;;;;4915188;28;89010;-90
2021/03/22 07:49:50;;;;;;;19.67;9.77;;;7.20;99.90;;;;;;4945974;28;86972;-90
2021/03/22 07:52:16;;;;;;;18.92;10.45;;;;;;;;;;4947452;28;85651;-90
2021/03/22 07:54:57;;;;;;;21.48;11.15;;;7.50;99.90;;;;;;4946124;28;88366;-90
2021/03/22 07:57:53;;;;;;;21.87;10.47;;;7.50;99.90;;;;;;4926097;28;87749;-91
2021/03/22 08:00:39;;;;;;;19.75;11.75;;;7.70;99.90;;;;;;4938355;28;88410;-90
2021/03/22 08:03:05;;;;;;;24.75;12.25;;;;;;;;;;4927857;28;87455;-89
2021/03/22 08:06:09;;;;;;;25.35;12.98;;;8.20;99.40;;;;;;5006738;28;87728;-89
2021/03/22 08:08:48;;;;;;;24.15;11.13;;;8.40;98.70;;;;;;5019496;28;20034;-90
2021/03/22 08:11:29;;;;;;;20.05;10.85;;;8.60;98.20;;;;;;5018424;28;20066;-89
2021/03/22 08:14:03;;;;;;;26.90;11.00;;;8.80;97.20;;;;;;5023348;28;20045;-89
2021/03/22 08:16:41;;;;;;;20.73;10.75;;;8.80;96.40;;;;;;5025480;28;20073;-89
2021/03/22 08:19:27;;;;;;;19.55;10.48;;;8.90;96.10;;;;;;5017091;28;20042;-89
2021/03/22 08:22:02;;;;;;;23.58;9.32;;;9.00;95.70;;;;;;5024957;28;20081;-90
2021/03/22 08:24:43;;;;;;;17.58;9.07;;;9.10;95.00;;;;;;5024631;28;20105;-90
2021/03/22 08:27:14;;;;;;;21.73;10.30;;;9.10;94.20;;;;;;5021570;28;20097;-90
2021/03/22 08:30:21;;;;;;;18.95;9.10;;;9.10;94.10;;;;;;5024928;28;20567;-87
2021/03/22 08:33:20;;;;;;;19.27;8.90;;;8.10;92.30;;;;;;5016823;28;20046;-88
2021/03/22 08:35:58;;;;;;;23.73;10.07;;;8.90;92.80;;;;;;5015137;28;20137;-88
2021/03/22 08:38:52;;;;;;;26.65;9.70;;;8.70;93.00;;;;;;5009522;28;20058;-89
2021/03/22 08:41:49;;;;;;;22.52;9.70;;;8.60;92.80;;;;;;5026886;28;20042;-88
2021/03/22 08:44:41;;;;;;;19.73;9.38;;;8.60;92.30;;;;;;5018478;28;20057;-89
2021/03/22 08:47:12;;;;;;;26.15;10.05;;;8.60;92.80;;;;;;5004802;28;20077;-90
2021/03/22 08:49:41;;;;;;;26.52;9.45;;;8.40;91.00;;;;;;5020249;28;20049;-89
2021/03/22 08:52:14;;;;;;;24.90;10.98;;;8.40;91.00;;;;;;5022288;28;20072;-90
2021/03/22 08:54:40;;;;;;;36.13;14.85;;;8.50;91.50;;;;;;5024519;28;20068;-88
2021/03/22 08:57:24;;;;;;;20.85;11.07;;;8.80;91.00;;;;;;5024574;28;20526;-90
2021/03/22 09:00:08;;;;;;;21.85;9.90;;;8.70;90.90;;;;;;5034772;28;20080;-89
2021/03/22 09:02:34;;;;;;;20.63;8.93;;;;;;;;;;5029459;28;20034;-88
2021/03/22 09:05:17;;;;;;;19.13;9.50;;;9.00;90.60;;;;;;5011685;28;20070;-89
2021/03/22 09:07:43;;;;;;;21.33;9.75;;;9.10;90.20;;;;;;5006290;28;20510;-89
2021/03/22 09:10:25;;;;;;;23.25;9.60;;;9.10;90.40;;;;;;5025779;28;20057;-90
2021/03/22 09:13:04;;;;;;;22.30;9.38;;;9.20;88.90;;;;;;5027074;28;20581;-87
2021/03/22 09:15:29;;;;;;;18.83;9.05;;;9.10;87.40;;;;;;5028909;28;20046;-90
2021/03/22 09:18:01;;;;;;;16.48;9.25;;;9.00;86.30;;;;;;4999948;28;20043;-88
2021/03/22 09:20:53;;;;;;;22.33;9.40;;;9.00;86.60;;;;;;5003232;28;20050;-89
2021/03/22 09:23:42;;;;;;;19.83;8.00;;;8.90;86.20;;;;;;5004286;28;20566;-89
2021/03/22 09:26:09;;;;;;;20.63;7.85;;;8.70;85.70;;;;;;5003725;28;20039;-89
2021/03/22 09:28:40;;;;;;;22.70;8.00;;;8.50;86.60;;;;;;5008729;28;20042;-89
2021/03/22 09:31:26;;;;;;;19.80;7.47;;;8.30;86.90;;;;;;5005836;28;20046;-89
2021/03/22 09:33:55;;;;;;;20.00;8.45;;;8.30;87.30;;;;;;5004087;28;20050;-89
2021/03/22 09:36:37;;;;;;;18.90;8.93;;;8.20;87.40;;;;;;5004675;28;20130;-90
2021/03/22 09:39:23;;;;;;;18.05;8.48;;;8.20;87.60;;;;;;5015253;28;20046;-88
2021/03/22 09:42:09;;;;;;;23.55;8.32;;;8.20;87.60;;;;;;5000168;28;20081;-89
2021/03/22 09:44:55;;;;;;;18.13;9.80;;;8.20;88.00;;;;;;5011900;28;20076;-89
2021/03/22 09:47:31;;;;;;;20.67;9.15;;;8.20;88.80;;;;;;4981404;28;20061;-88
2021/03/22 09:50:04;;;;;;;20.90;9.27;;;8.10;89.30;;;;;;4991522;28;20051;-89
2021/03/22 09:52:34;;;;;;;16.75;8.48;;;8.00;89.30;;;;;;4987764;28;20558;-89
2021/03/22 09:55:01;;;;;;;15.80;7.80;;;8.00;88.80;;;;;;4999421;28;20101;-89
2021/03/22 09:57:37;;;;;;;20.90;7.93;;;8.00;89.30;;;;;;5003919;28;20085;-89
2021/03/22 10:00:24;;;;;;;19.38;7.75;;;8.20;89.30;;;;;;5004589;28;20051;-90
2021/03/22 10:03:30;;;;;;;20.55;8.65;;;8.30;89.00;;;;;;5002494;28;20038;-89
2021/03/22 10:06:00;;;;;;;22.30;9.02;;;8.40;88.40;;;;;;4971270;28;20579;-89
2021/03/22 10:08:31;;;;;;;20.65;8.32;;;8.50;87.50;;;;;;5005265;28;20039;-90
2021/03/22 10:10:57;;;;;;;21.30;8.45;;;;;;;;;;4997854;28;20046;-88
2021/03/22 10:13:34;;;;;;;18.25;7.80;;;8.50;84.80;;;;;;5005475;28;20050;-88
2021/03/22 10:16:00;;;;;;;17.83;7.10;;;;;;;;;;5011337;28;20043;-88
2021/03/22 10:18:48;;;;;;;18.88;6.88;;;8.50;83.40;;;;;;5003498;28;20043;-89
2021/03/22 10:21:53;;;;;;;16.08;7.30;;;8.70;83.30;;;;;;4987385;28;20384;-90
2021/03/22 10:24:37;;;;;;;20.95;7.35;;;8.80;81.40;;;;;;4945869;29;20052;-90
2021/03/22 10:27:20;;;;;;;10.93;6.43;;;9.00;81.90;;;;;;4962181;28;20058;-90
2021/03/22 10:29:46;;;;;;;19.02;6.53;;;9.30;80.30;;;;;;4981927;28;20055;-89
2021/03/22 10:32:12;;;;;;;20.73;7.85;;;;;;;;;;5006857;28;20110;-90
2021/03/22 10:35:03;;;;;;;12.30;6.90;;;9.40;77.10;;;;;;4991779;28;20043;-90
2021/03/22 10:37:32;;;;;;;;;;;9.60;74.80;;;;;;4996816;28;20043;-89
2021/03/22 10:40:02;;;;;;;18.67;6.65;;;9.80;72.70;;;;;;4998766;28;19942;-89
2021/03/22 10:42:37;;;;;;;14.27;6.72;;;10.10;73.60;;;;;;4999151;28;20419;-89
2021/03/22 10:45:24;;;;;;;20.08;7.07;;;10.00;73.50;;;;;;5001843;28;20090;-89
2021/03/22 10:47:51;;;;;;;17.60;6.60;;;10.40;71.20;;;;;;4985125;28;20055;-90
2021/03/22 10:50:25;;;;;;;14.40;6.60;;;10.60;70.00;;;;;;4965816;28;20055;-89
2021/03/22 10:53:24;;;;;;;13.95;6.80;;;10.80;68.60;;;;;;4983819;28;20031;-90
2021/03/22 10:55:50;;;;;;;15.05;5.90;;;11.00;66.70;;;;;;4986024;28;20047;-89
2021/03/22 10:58:33;;;;;;;20.77;7.30;;;11.20;65.40;;;;;;4984873;28;20050;-88
2021/03/22 11:01:04;;;;;;;12.55;6.45;;;11.40;66.20;;;;;;4986780;28;20047;-89
2021/03/22 11:03:34;;;;;;;17.73;7.28;;;11.60;66.50;;;;;;4986606;28;20147;-90
2021/03/22 11:06:00;;;;;;;18.10;6.88;;;11.50;65.70;;;;;;4983077;28;20043;-89
2021/03/22 11:08:32;;;;;;;15.57;6.82;;;11.30;65.10;;;;;;4979853;28;20063;-89
2021/03/22 11:11:08;;;;;;;11.88;6.25;;;11.30;64.90;;;;;;5001373;28;20504;-89
2021/03/22 11:13:59;;;;;;;15.57;7.45;;;11.10;64.90;;;;;;4986153;28;20054;-90
2021/03/22 11:16:27;;;;;;;12.93;6.90;;;11.00;64.60;;;;;;4984925;28;20055;-90
2021/03/22 11:18:54;;;;;;;16.05;6.78;;;10.90;64.80;;;;;;4985985;28;20047;-89
2021/03/22 11:21:25;;;;;;;18.10;7.57;;;10.90;63.80;;;;;;4985113;28;20095;-90
2021/03/22 11:23:54;;;;;;;12.57;6.40;;;10.70;64.20;;;;;;4978735;28;20147;-90
2021/03/22 11:26:29;;;;;;;14.65;6.45;;;10.60;64.00;;;;;;4977722;28;20039;-90
2021/03/22 11:29:20;;;;;;;18.67;6.13;;;10.60;64.30;;;;;;4976878;28;20039;-90
2021/03/22 11:31:48;;;;;;;19.02;7.20;;;10.40;64.20;;;;;;4978369;28;20047;-90
2021/03/22 11:34:24;;;;;;;16.35;6.53;;;10.30;65.90;;;;;;4992177;28;20201;-89
2021/03/22 11:37:06;;;;;;;20.40;6.82;;;10.30;66.10;;;;;;4992125;28;20496;-90
2021/03/22 11:39:33;;;;;;;14.93;6.85;;;10.20;66.90;;;;;;4976586;28;20118;-90
2021/03/22 11:41:59;;;;;;;14.85;6.43;;;10.10;66.00;;;;;;4977406;28;20050;-90
2021/03/22 11:44:34;;;;;;;16.50;6.53;;;10.00;66.10;;;;;;4977454;28;20043;-89
2021/03/22 11:47:37;;;;;;;15.63;6.20;;;9.80;67.20;;;;;;5002325;28;20452;-89
2021/03/22 11:50:26;;;;;;;15.15;6.43;;;9.80;66.50;;;;;;5020956;28;20038;-89
2021/03/22 11:53:12;;;;;;;13.27;6.30;;;9.80;66.50;;;;;;5015261;28;20049;-91
2021/03/22 11:55:49;;;;;;;15.20;7.28;;;9.80;66.50;;;;;;5000597;28;20061;-90
2021/03/22 11:58:28;;;;;;;17.95;6.93;;;9.80;66.70;;;;;;5000602;28;20413;-89
2021/03/22 12:00:56;;;;;;;20.98;7.55;;;9.70;66.10;;;;;;5001586;28;20105;-89
2021/03/22 12:03:31;;;;;;;15.55;6.63;;;9.80;66.90;;;;;;5002469;28;20385;-90
2021/03/22 12:06:34;;;;;;;17.05;6.55;;;9.90;67.40;;;;;;5015126;28;20262;-89
2021/03/22 12:09:11;;;;;;;11.57;6.25;;;9.90;66.10;;;;;;4920525;28;20135;-90
2021/03/22 12:11:36;;;;;;;19.80;6.88;;;9.80;65.80;;;;;;4995734;28;20686;-87
2021/03/22 12:14:02;;;;;;;17.83;6.55;;;9.50;66.10;;;;;;5005930;28;20054;-89
2021/03/22 12:16:34;;;;;;;16.80;6.28;;;9.50;66.60;;;;;;5028416;28;20426;-89
2021/03/22 12:19:09;;;;;;;15.45;6.63;;;9.70;66.70;;;;;;5035604;28;20501;-89
2021/03/22 12:21:36;;;;;;;15.95;6.95;;;9.80;65.80;;;;;;5039857;28;20077;-86
2021/03/22 12:24:03;;;;;;;12.38;5.45;;;9.90;65.00;;;;;;5021508;28;20129;-87
2021/03/22 12:26:30;;;;;;;13.40;5.50;;;9.90;64.50;;;;;;5016828;28;20043;-85
2021/03/22 12:28:57;;;;;;;15.07;5.97;;;10.00;64.40;;;;;;5021868;28;20090;-88
2021/03/22 12:31:36;;;;;;;12.50;5.55;;;10.10;64.10;;;;;;5020627;28;20121;-88
2021/03/22 12:34:06;;;;;;;13.68;5.05;;;10.20;63.60;;;;;;5017696;28;20125;-88
2021/03/22 12:36:35;;;;;;;12.02;5.47;;;9.80;63.60;;;;;;5022592;28;20121;-88
2021/03/22 12:39:01;;;;;;;13.23;6.38;;;10.40;63.00;;;;;;5018983;28;20093;-88
2021/03/22 12:41:32;;;;;;;15.75;6.00;;;10.50;62.90;;;;;;5017792;28;20046;-87
2021/03/22 12:44:03;;;;;;;12.70;6.53;;;10.50;61.80;;;;;;5006933;28;20118;-88
2021/03/22 12:46:30;;;;;;;11.95;5.15;;;10.60;62.00;;;;;;5020357;28;20066;-87
2021/03/22 12:48:56;;;;;;;15.50;5.55;;;10.70;62.80;;;;;;5022032;28;20047;-87
2021/03/22 12:51:21;;;;;;;12.45;4.47;;;10.70;62.60;;;;;;5004408;28;20085;-89
2021/03/22 12:53:50;;;;;;;10.07;4.82;;;10.80;62.00;;;;;;5021282;28;20070;-87
2021/03/22 12:56:18;;;;;;;15.13;5.60;;;10.70;61.20;;;;;;5007185;28;20462;-87
2021/03/22 12:58:44;;;;;;;10.90;4.47;;;10.80;60.30;;;;;;5004068;28;20038;-87
2021/03/22 13:01:15;;;;;;;10.75;5.28;;;10.80;58.90;;;;;;5020696;28;20045;-88
2021/03/22 13:03:42;;;;;;;11.85;5.15;;;11.00;58.30;;;;;;4999467;28;20039;-89
2021/03/22 13:06:08;;;;;;;11.70;4.90;;;11.00;58.10;;;;;;5021973;28;20505;-87
2021/03/22 13:08:33;;;;;;;8.68;4.45;;;11.00;58.80;;;;;;5008725;28;20050;-88
2021/03/22 13:10:59;;;;;;;11.07;4.82;;;11.20;58.20;;;;;;5005883;28;20053;-88
2021/03/22 13:13:25;;;;;;;10.07;4.32;;;11.30;58.10;;;;;;5015352;28;20078;-87
2021/03/22 13:15:54;;;;;;;11.95;5.00;;;11.40;56.90;;;;;;5019383;28;20133;-88
2021/03/22 13:18:32;;;;;;;12.45;5.35;;;11.50;56.60;;;;;;5018912;28;20158;-88
2021/03/22 13:21:01;;;;;;;18.45;5.20;;;11.70;55.60;;;;;;5010640;28;20043;-88
2021/03/22 13:23:28;;;;;;;11.10;4.80;;;11.80;56.10;;;;;;5019126;28;20039;-88
2021/03/22 13:25:56;;;;;;;8.88;4.82;;;12.10;55.60;;;;;;5014150;28;20054;-88
2021/03/22 13:28:27;;;;;;;13.48;5.07;;;12.60;55.90;;;;;;5017185;28;20071;-88
2021/03/22 13:30:54;;;;;;;9.38;4.88;;;12.90;54.10;;;;;;5017388;28;20045;-88
2021/03/22 13:33:23;;;;;;;9.25;4.70;;;12.90;53.80;;;;;;4996962;28;20845;-88
2021/03/22 13:35:50;;;;;;;9.82;4.97;;;12.80;51.60;;;;;;5003613;28;20050;-88
2021/03/22 13:38:23;;;;;;;10.48;4.90;;;12.40;51.40;;;;;;5033512;28;20037;-88
2021/03/22 13:40:49;;;;;;;8.70;4.80;;;12.30;51.90;;;;;;5043430;28;20053;-88
2021/03/22 13:43:18;;;;;;;12.15;4.60;;;12.20;52.40;;;;;;5034478;28;20138;-87
2021/03/22 13:45:44;;;;;;;10.45;4.80;;;12.10;52.30;;;;;;5043651;28;20054;-88
2021/03/22 13:48:11;;;;;;;12.32;5.50;;;12.10;52.50;;;;;;5039361;28;20042;-89
2021/03/22 13:50:38;;;;;;;11.15;4.82;;;11.80;51.10;;;;;;5023094;28;20035;-88
2021/03/22 13:53:04;;;;;;;11.35;4.22;;;11.30;51.60;;;;;;5023873;28;20038;-89
2021/03/22 13:55:30;;;;;;;11.95;4.53;;;11.10;52.70;;;;;;5012662;28;20042;-89
2021/03/22 13:57:56;;;;;;;12.38;4.60;;;11.10;53.00;;;;;;5017749;28;20045;-88
2021/03/22 14:00:23;;;;;;;12.45;5.28;;;11.10;53.80;;;;;;5025822;28;20042;-88
2021/03/22 14:02:49;;;;;;;12.38;5.10;;;11.30;53.10;;;;;;5015837;28;20536;-88
2021/03/22 14:05:24;;;;;;;13.43;4.88;;;11.20;53.00;;;;;;5014222;28;20562;-89
2021/03/22 14:07:50;;;;;;;9.82;4.45;;;11.20;52.80;;;;;;5026336;28;20038;-88
2021/03/22 14:10:18;;;;;;;14.18;6.55;;;11.10;52.80;;;;;;5021092;28;20046;-88
2021/03/22 14:12:44;;;;;;;12.27;5.97;;;11.20;52.40;;;;;;5010960;28;20053;-87
2021/03/22 14:15:25;;;;;;;21.65;5.18;;;11.20;52.60;;;;;;5021872;28;20051;-88
2021/03/22 14:17:51;;;;;;;;;;;10.90;52.00;;;;;;5015279;28;20043;-90
2021/03/22 14:20:18;;;;;;;9.02;4.28;;;10.90;52.70;;;;;;5015837;28;20386;-88
2021/03/22 14:22:45;;;;;;;7.88;5.10;;;10.90;52.20;;;;;;5024659;28;20125;-89
2021/03/22 14:25:12;;;;;;;9.27;4.65;;;10.80;53.10;;;;;;5025286;28;20054;-88
2021/03/22 14:27:38;;;;;;;9.60;5.10;;;10.80;53.80;;;;;;5025381;28;20042;-88
2021/03/22 14:30:08;;;;;;;9.02;5.53;;;10.80;53.90;;;;;;5025456;28;20505;-89
2021/03/22 14:32:33;;;;;;;7.68;4.40;;;10.80;53.90;;;;;;5020259;28;20038;-88
2021/03/22 14:34:59;;;;;;;8.00;5.05;;;10.70;53.40;;;;;;5017963;28;20479;-88
2021/03/22 14:37:25;;;;;;;5.53;4.15;;;10.50;53.60;;;;;;5002123;28;20129;-88
2021/03/22 14:39:50;;;;;;;8.40;3.70;;;10.30;53.40;;;;;;5000911;28;20610;-89
2021/03/22 14:42:16;;;;;;;5.82;3.50;;;10.20;54.50;;;;;;5016203;28;20042;-89
2021/03/22 14:44:42;;;;;;;7.97;3.67;;;10.00;54.90;;;;;;5000104;28;20046;-87
2021/03/22 14:47:07;;;;;;;6.32;3.10;;;9.90;55.10;;;;;;5025652;28;20125;-87
2021/03/22 14:49:33;;;;;;;6.75;3.55;;;9.90;55.60;;;;;;5026495;28;20049;-88
2021/03/22 14:51:59;;;;;;;9.57;4.63;;;9.90;56.10;;;;;;5025584;28;20042;-87
2021/03/22 14:54:25;;;;;;;11.70;4.55;;;9.70;56.80;;;;;;5018049;28;20053;-87
2021/03/22 14:56:50;;;;;;;6.88;4.32;;;9.60;57.30;;;;;;5014797;28;20035;-88
2021/03/22 14:59:16;;;;;;;8.82;4.57;;;9.50;58.10;;;;;;5016039;28;20121;-87
2021/03/22 15:01:42;;;;;;;15.63;5.60;;;9.40;59.00;;;;;;5024437;28;20038;-87
2021/03/22 15:04:09;;;;;;;9.18;4.82;;;9.20;59.40;;;;;;5024000;28;20062;-88
2021/03/22 15:06:35;;;;;;;8.30;4.15;;;9.20;60.40;;;;;;5024339;28;20034;-88
2021/03/22 15:09:02;;;;;;;8.88;3.78;;;9.10;60.20;;;;;;5021033;28;20048;-88
2021/03/22 15:11:28;;;;;;;8.60;4.45;;;9.00;60.70;;;;;;5021047;28;20066;-89
2021/03/22 15:13:53;;;;;;;6.82;4.53;;;9.00;60.80;;;;;;5020928;28;20046;-89
2021/03/22 15:16:19;;;;;;;7.55;4.05;;;8.80;61.20;;;;;;4993554;28;20514;-88
2021/03/22 15:18:45;;;;;;;8.73;4.10;;;8.70;61.60;;;;;;5020874;28;20034;-88
2021/03/22 15:21:11;;;;;;;6.68;3.83;;;8.80;61.80;;;;;;5025017;28;20511;-87
2021/03/22 15:23:37;;;;;;;9.32;4.57;;;8.70;61.70;;;;;;5006401;28;20042;-87
2021/03/22 15:26:03;;;;;;;7.82;3.97;;;8.50;62.00;;;;;;5020981;28;20101;-88
2021/03/22 15:28:31;;;;;;;6.30;3.90;;;8.30;62.30;;;;;;4996840;28;233868;-88
2021/03/22 15:31:02;;;;;;;7.68;4.53;;;8.20;62.60;;;;;;5006278;28;20057;-88
2021/03/22 15:33:37;;;;;;;8.75;3.85;;;8.20;62.80;;;;;;5014845;28;20050;-87
2021/03/22 15:36:13;;;;;;;6.75;3.97;;;8.20;63.80;;;;;;5023986;28;20078;-88
2021/03/22 15:38:39;;;;;;;9.35;3.90;;;8.20;64.20;;;;;;5025105;28;20042;-87
2021/03/22 15:41:08;;;;;;;7.28;3.60;;;8.20;64.20;;;;;;5025505;28;20518;-88
2021/03/22 15:43:35;;;;;;;12.82;4.88;;;8.20;64.50;;;;;;5008511;28;20050;-88
2021/03/22 15:46:04;;;;;;;6.20;4.07;;;8.20;64.10;;;;;;5027292;28;20058;-88
2021/03/22 15:48:31;;;;;;;8.85;4.93;;;8.10;63.80;;;;;;5011649;28;228866;-88
2021/03/22 15:50:57;;;;;;;9.65;3.80;;;8.10;63.60;;;;;;5023924;28;20052;-87
2021/03/22 15:53:23;;;;;;;5.50;3.58;;;8.00;63.90;;;;;;5011304;28;20098;-87
2021/03/22 15:55:48;;;;;;;6.20;4.38;;;8.00;64.60;;;;;;5021214;28;20426;-88
2021/03/22 15:58:14;;;;;;;5.97;4.43;;;7.90;64.80;;;;;;5006337;28;20042;-87
2021/03/22 16:00:40;;;;;;;6.75;3.65;;;7.90;65.40;;;;;;5026838;28;20105;-88
2021/03/22 16:03:09;;;;;;;5.88;2.65;;;7.90;65.50;;;;;;5006260;28;20054;-87
2021/03/22 16:05:34;;;;;;;6.50;3.70;;;7.80;66.60;;;;;;5015654;28;20038;-87
2021/03/22 16:08:03;;;;;;;7.22;3.83;;;7.70;66.60;;;;;;5009324;28;20650;-88
2021/03/22 16:10:30;;;;;;;8.30;3.55;;;7.60;68.00;;;;;;5021014;28;20042;-87
2021/03/22 16:12:57;;;;;;;5.03;3.70;;;7.60;67.90;;;;;;5021034;28;20058;-88
2021/03/22 16:15:27;;;;;;;10.85;4.30;;;7.60;67.90;;;;;;5013139;28;20047;-88
2021/03/22 16:17:55;;;;;;;7.70;3.97;;;7.60;68.90;;;;;;5022497;28;20039;-88
2021/03/22 16:20:24;;;;;;;13.70;4.15;;;7.50;69.50;;;;;;5023489;28;20907;-88
2021/03/22 16:22:50;;;;;;;6.47;3.53;;;7.40;70.40;;;;;;5000146;28;20050;-88
2021/03/22 16:25:24;;;;;;;9.32;4.25;;;7.30;71.10;;;;;;5021076;28;20363;-89
2021/03/22 16:27:50;;;;;;;6.93;3.72;;;7.30;71.40;;;;;;5021705;28;20053;-90
2021/03/22 16:30:23;;;;;;;8.48;4.55;;;7.40;71.10;;;;;;5005903;28;20050;-88
2021/03/22 16:32:50;;;;;;;10.07;4.13;;;7.20;71.20;;;;;;5024741;28;20097;-90
2021/03/22 16:35:23;;;;;;;10.60;3.80;;;7.30;71.20;;;;;;5018567;28;20170;-89
2021/03/22 16:37:58;;;;;;;7.45;3.65;;;7.30;70.90;;;;;;5022843;28;20110;-89
2021/03/22 16:40:45;;;;;;;9.48;4.93;;;7.30;70.60;;;;;;5030085;28;20045;-90
2021/03/22 16:43:14;;;;;;;9.05;5.20;;;7.30;70.80;;;;;;5022387;28;20053;-88
2021/03/22 16:45:42;;;;;;;8.15;4.28;;;7.30;71.20;;;;;;5023710;28;20073;-86
2021/03/22 16:48:11;;;;;;;6.97;3.83;;;7.10;71.70;;;;;;5027672;28;20471;-88
2021/03/22 16:50:37;;;;;;;7.60;3.90;;;7.00;72.30;;;;;;5027682;28;20123;-87
2021/03/22 16:53:03;;;;;;;10.75;4.80;;;7.00;72.10;;;;;;5025295;28;20042;-87
2021/03/22 16:55:32;;;;;;;9.18;3.47;;;7.00;72.70;;;;;;5018158;28;20129;-89
2021/03/22 16:57:58;;;;;;;7.28;3.90;;;7.00;72.80;;;;;;5001815;28;20518;-86
2021/03/22 17:00:27;;;;;;;8.23;3.95;;;6.90;73.00;;;;;;5023942;28;20073;-88
2021/03/22 17:02:53;;;;;;;9.25;4.38;;;6.90;73.00;;;;;;5017888;28;20078;-87
2021/03/22 17:05:23;;;;;;;5.78;4.20;;;6.90;73.90;;;;;;5012654;28;20047;-87
2021/03/22 17:07:50;;;;;;;8.32;4.00;;;6.90;73.90;;;;;;5023531;28;20446;-87
2021/03/22 17:10:16;;;;;;;8.15;4.32;;;6.80;74.30;;;;;;5007410;28;20073;-86
2021/03/22 17:12:42;;;;;;;6.85;4.28;;;6.70;74.70;;;;;;4989709;28;20050;-86